createdAt,value
2023-01-31T00:01:11.645Z,178.7423
2023-01-31T00:06:13.273Z,157.14635
2023-01-31T00:11:14.910Z,128.45
2023-01-31T00:16:17.560Z,97.3748
2023-01-31T00:21:19.201Z,78.6559
2023-01-31T00:26:20.947Z,61.33845
2023-01-31T00:31:22.753Z,47.8203
2023-01-31T00:36:24.749Z,33.69365
2023-01-31T00:41:26.392Z,22.44405
2023-01-31T00:46:28.033Z,17.42775
2023-01-31T00:51:29.940Z,8.3174
2023-01-31T00:56:31.820Z,3.67
2023-01-31T01:01:33.521Z,2.3237
2023-01-31T01:06:35.384Z,0
2023-01-31T01:11:37.701Z,0
2023-01-31T01:16:39.393Z,0
2023-01-31T01:21:41.088Z,0
2023-01-31T01:26:42.814Z,0
2023-01-31T01:31:44.757Z,0
2023-01-31T01:36:48.092Z,0
2023-01-31T01:41:49.895Z,0
2023-01-31T01:46:51.613Z,0
2023-01-31T01:51:53.380Z,0
2023-01-31T01:56:54.980Z,0
2023-01-31T02:01:56.690Z,0
2023-01-31T02:06:58.559Z,0
2023-01-31T02:12:00.328Z,0
2023-01-31T02:17:02.068Z,0
2023-01-31T02:22:03.766Z,0
2023-01-31T02:27:05.350Z,0
2023-01-31T02:32:07.479Z,0
2023-01-31T02:37:10.534Z,0
2023-01-31T02:42:12.181Z,0
2023-01-31T02:47:13.820Z,0
2023-01-31T02:52:16.273Z,0
2023-01-31T02:57:18.189Z,0
2023-01-31T03:02:20.427Z,0
2023-01-31T03:07:22.307Z,0
2023-01-31T03:12:23.997Z,0
2023-01-31T03:17:25.668Z,0
2023-01-31T03:22:27.452Z,0
2023-01-31T03:27:29.203Z,0
2023-01-31T03:32:31.117Z,0
2023-01-31T03:37:32.749Z,0
2023-01-31T03:42:34.364Z,0
2023-01-31T03:47:36.079Z,0
2023-01-31T03:52:37.703Z,0
2023-01-31T03:57:39.513Z,0
2023-01-31T04:02:41.410Z,0
2023-01-31T04:07:43.023Z,0
2023-01-31T04:12:44.718Z,0
2023-01-31T04:17:46.574Z,0
2023-01-31T04:22:48.333Z,0
2023-01-31T04:27:50.004Z,0
2023-01-31T04:32:51.652Z,0
2023-01-31T04:37:53.459Z,0
2023-01-31T04:42:55.177Z,0
2023-01-31T04:47:56.919Z,0
2023-01-31T04:52:59.121Z,0
2023-01-31T04:58:00.765Z,0
2023-01-31T05:03:02.909Z,0
2023-01-31T05:08:04.581Z,0
2023-01-31T05:13:06.205Z,0
2023-01-31T05:18:07.822Z,0
2023-01-31T05:23:09.434Z,0
2023-01-31T05:28:11.092Z,0
2023-01-31T05:33:12.876Z,0
2023-01-31T05:38:14.532Z,0
2023-01-31T05:43:16.259Z,0
2023-01-31T05:48:18.165Z,0
2023-01-31T05:53:19.766Z,0
2023-01-31T05:58:21.419Z,0
2023-01-31T06:03:23.108Z,0
2023-01-31T06:08:24.733Z,0
2023-01-31T06:13:30.111Z,0
2023-01-31T06:18:33.113Z,0
2023-01-31T06:23:35.043Z,0
2023-01-31T06:28:36.866Z,0
2023-01-31T06:33:46.823Z,0
2023-01-31T06:38:49.555Z,0
2023-01-31T06:43:51.197Z,0
2023-01-31T06:48:53.112Z,0
2023-01-31T06:53:55.187Z,0
2023-01-31T06:58:56.858Z,0
2023-01-31T07:03:58.466Z,0
2023-01-31T07:09:00.170Z,0
2023-01-31T07:14:01.798Z,0
2023-01-31T07:19:03.424Z,0
2023-01-31T07:24:05.142Z,0
2023-01-31T07:29:06.817Z,0
2023-01-31T07:34:08.426Z,0
2023-01-31T07:39:10.206Z,0
2023-01-31T07:44:11.835Z,0
2023-01-31T07:49:13.585Z,0
2023-01-31T07:54:15.201Z,0
2023-01-31T07:59:16.843Z,0
2023-01-31T08:04:21.942Z,0
2023-01-31T08:09:24.358Z,0
2023-01-31T08:14:26.104Z,0
2023-01-31T08:19:27.721Z,0
2023-01-31T08:24:29.371Z,0
2023-01-31T08:29:31.673Z,0
2023-01-31T08:34:33.402Z,0
2023-01-31T08:39:35.033Z,0
2023-01-31T08:44:36.943Z,0
2023-01-31T08:49:38.559Z,0
2023-01-31T08:54:40.193Z,0
2023-01-31T08:59:41.862Z,0
2023-01-31T09:04:43.475Z,0
2023-01-31T09:09:45.145Z,0
2023-01-31T09:14:46.849Z,0
2023-01-31T09:19:48.550Z,0
2023-01-31T09:24:50.210Z,0
2023-01-31T09:29:51.942Z,0
2023-01-31T09:34:53.516Z,0
2023-01-31T09:39:55.151Z,0
2023-01-31T09:44:56.794Z,0
2023-01-31T09:49:58.429Z,0
2023-01-31T09:55:00.153Z,0
2023-01-31T10:00:01.872Z,0
2023-01-31T10:05:03.497Z,0
2023-01-31T10:10:05.143Z,0
2023-01-31T10:15:06.759Z,0
2023-01-31T10:20:08.425Z,0
2023-01-31T10:25:10.090Z,0
2023-01-31T10:30:11.753Z,0
2023-01-31T10:35:13.399Z,0
2023-01-31T10:40:15.174Z,0
2023-01-31T10:45:16.925Z,0
2023-01-31T10:50:19.021Z,0
2023-01-31T10:55:21.021Z,0
2023-01-31T11:00:23.062Z,0
2023-01-31T11:05:24.910Z,0
2023-01-31T11:10:26.558Z,0
2023-01-31T11:15:28.237Z,0
2023-01-31T11:20:29.882Z,0
2023-01-31T11:25:31.637Z,0
2023-01-31T11:30:33.331Z,0
2023-01-31T11:35:34.998Z,0
2023-01-31T11:40:36.653Z,0
2023-01-31T11:45:38.361Z,0
2023-01-31T11:50:39.994Z,0
2023-01-31T11:55:41.645Z,0
2023-01-31T12:00:43.247Z,0
2023-01-31T12:05:44.958Z,0
2023-01-31T12:10:46.813Z,0
2023-01-31T12:15:48.486Z,0
2023-01-31T12:20:50.109Z,0
2023-01-31T12:25:52.075Z,0
2023-01-31T12:30:54.042Z,0
2023-01-31T12:35:55.762Z,0
2023-01-31T12:40:57.402Z,0
2023-01-31T12:45:59.051Z,0
2023-01-31T12:51:00.718Z,0
2023-01-31T12:56:02.608Z,0
2023-01-31T13:01:04.423Z,0
2023-01-31T13:06:06.141Z,0
2023-01-31T13:11:07.772Z,0
2023-01-31T13:16:09.454Z,0
2023-01-31T13:21:11.130Z,0
2023-01-31T13:26:12.895Z,0
2023-01-31T13:31:14.714Z,0
2023-01-31T13:36:16.406Z,0
2023-01-31T13:41:18.056Z,0
2023-01-31T13:46:19.722Z,0
2023-01-31T13:51:21.366Z,0
2023-01-31T13:56:23.093Z,0
2023-01-31T14:01:25.128Z,0
2023-01-31T14:06:26.759Z,0
2023-01-31T14:11:28.574Z,0
2023-01-31T14:16:30.385Z,0
2023-01-31T14:21:32.308Z,0
2023-01-31T14:26:34.047Z,0
2023-01-31T14:31:35.853Z,0
2023-01-31T14:36:37.467Z,0
2023-01-31T14:41:39.079Z,0
2023-01-31T14:46:40.715Z,0
2023-01-31T14:51:42.442Z,0
2023-01-31T14:56:44.039Z,0
2023-01-31T15:01:45.697Z,0
2023-01-31T15:06:47.333Z,0.4148
2023-01-31T15:11:49.127Z,4.6474
2023-01-31T15:16:50.838Z,8.13295
2023-01-31T15:21:52.552Z,9.6637
2023-01-31T15:26:54.177Z,22.07515
2023-01-31T15:31:55.864Z,29.9685
2023-01-31T15:36:57.474Z,44.46405
2023-01-31T15:41:59.139Z,57.6133
2023-01-31T15:47:00.743Z,76.5718
2023-01-31T15:52:02.391Z,87.89555
2023-01-31T15:57:04.098Z,102.1515
2023-01-31T16:02:05.928Z,120.68595
2023-01-31T16:07:07.659Z,141.72855
2023-01-31T16:12:09.252Z,179.90415
2023-01-31T16:17:10.901Z,189.19895
2023-01-31T16:22:12.533Z,185.953
2023-01-31T16:27:14.454Z,213.2289
2023-01-31T16:32:16.079Z,227.7986
2023-01-31T16:37:17.736Z,257.3982
2023-01-31T16:42:19.438Z,294.65155
2023-01-31T16:47:21.305Z,305.66155
2023-01-31T16:52:22.935Z,315.56485
2023-01-31T16:57:24.600Z,347.24855
2023-01-31T17:02:26.356Z,364.25225
2023-01-31T17:07:28.029Z,405.59965
2023-01-31T17:12:29.652Z,438.2056
2023-01-31T17:17:31.302Z,471.2356
2023-01-31T17:22:32.961Z,480.71485
2023-01-31T17:27:34.728Z,503.8967
2023-01-31T17:32:36.423Z,502.73485
2023-01-31T17:37:38.141Z,549.283
2023-01-31T17:42:39.742Z,555.35085
2023-01-31T17:47:41.388Z,589.72715
2023-01-31T17:52:42.997Z,627.8286
2023-01-31T17:57:44.671Z,708.329
2023-01-31T18:02:46.414Z,758.1231
2023-01-31T18:07:48.087Z,835.4517
2023-01-31T18:12:49.719Z,893.3236
2023-01-31T18:17:51.341Z,836.98245
2023-01-31T18:22:52.972Z,766.25605
2023-01-31T18:27:54.866Z,803.67485
2023-01-31T18:32:56.515Z,1024.2266
2023-01-31T18:37:58.296Z,951.0472
2023-01-31T18:42:59.963Z,944.11225
2023-01-31T18:48:01.733Z,1093.51355
2023-01-31T18:53:03.409Z,1192.5484
2023-01-31T18:58:05.130Z,1071.1798
2023-01-31T19:03:06.955Z,1036.176
2023-01-31T19:08:08.540Z,1036.96895
2023-01-31T19:13:10.272Z,922.94035
2023-01-31T19:18:11.918Z,876.31805
2023-01-31T19:23:13.536Z,952.77955
2023-01-31T19:28:15.210Z,879.564
2023-01-31T19:33:16.915Z,898.96555
2023-01-31T19:38:18.504Z,995.01305
2023-01-31T19:43:20.109Z,968.47495
2023-01-31T19:48:21.793Z,971.8502
2023-01-31T19:53:23.382Z,897.01075
2023-01-31T19:58:25.058Z,873.2014
2023-01-31T20:03:26.722Z,897.25035
2023-01-31T20:08:28.341Z,947.78225
2023-01-31T20:13:29.987Z,911.32185
2023-01-31T20:18:31.636Z,871.6345
2023-01-31T20:23:33.318Z,824.2934
2023-01-31T20:28:34.966Z,958.81125
2023-01-31T20:33:36.618Z,963.69825
2023-01-31T20:38:38.369Z,948.40975
2023-01-31T20:43:40.020Z,924.28665
2023-01-31T20:48:41.635Z,864.6444
2023-01-31T20:53:43.318Z,940.92145
2023-01-31T20:58:45.027Z,910.21515
2023-01-31T21:03:46.751Z,890.77745
2023-01-31T21:08:48.676Z,809.1152
2023-01-31T21:13:50.356Z,771.5481
2023-01-31T21:18:52.003Z,805.26075
2023-01-31T21:23:53.736Z,814.81415
2023-01-31T21:28:55.408Z,755.4115
2023-01-31T21:33:57.286Z,664.1407
2023-01-31T21:38:58.893Z,693.5197
2023-01-31T21:44:00.593Z,745.5272
2023-01-31T21:49:04.271Z,672.1082
2023-01-31T21:54:05.990Z,595.0382
2023-01-31T21:59:07.550Z,547.75225
2023-01-31T22:04:10.227Z,512.8226
2023-01-31T22:09:11.822Z,512.8226
2023-01-31T22:14:13.399Z,493.3659
2023-01-31T22:19:15.138Z,470.3685
2023-01-31T22:24:16.834Z,467.5466
2023-01-31T22:29:18.428Z,478.5566
2023-01-31T22:34:20.079Z,459.7084
2023-01-31T22:39:21.760Z,404.71355
2023-01-31T22:44:23.445Z,420.97945
2023-01-31T22:49:25.193Z,499.3596
2023-01-31T22:54:26.827Z,526.4149
2023-01-31T22:59:28.430Z,581.153
2023-01-31T23:04:30.235Z,601.53195
2023-01-31T23:09:31.998Z,614.51575
2023-01-31T23:14:33.719Z,523.2621
2023-01-31T23:19:35.313Z,462.3097
2023-01-31T23:24:36.993Z,450.15685
2023-01-31T23:29:38.702Z,292.383
2023-01-31T23:34:40.372Z,237.14855
2023-01-31T23:39:42.205Z,229.6241
2023-01-31T23:44:43.908Z,191.5778
2023-01-31T23:49:45.524Z,160.1337
2023-01-31T23:54:47.528Z,121.53405
2023-01-31T23:59:49.162Z,113.58555
